Time;durP1;ratioP1;P1;durP2;ratioP2;P2;SDS_P1;SDS_P2;PMS_P1;PMS_P2;Temp;Humidity;BMP_temperature;BMP_pressure;BME280_temperature;BME280_humidity;BME280_pressure;Samples;Min_cycle;Max_cycle;Signal;HPM_P1;HPM_P2
2021/04/03 00:00:40;;;;;;;;;10.50;10.00;;;;;16.16;40.13;98110.81;4925824;28;103979;-84
2021/04/03 00:03:08;;;;;;;;;6.75;6.50;;;;;16.16;40.05;98101.78;4942606;28;104039;-84
2021/04/03 00:05:35;;;;;;;;;10.50;9.50;;;;;16.16;40.02;98102.63;4929064;28;102172;-84
2021/04/03 00:08:02;;;;;;;;;8.25;7.50;;;;;16.16;40.08;98105.34;4940685;28;103427;-84
2021/04/03 00:10:32;;;;;;;;;10.50;7.50;;;;;16.15;39.73;98100.13;4922214;28;104333;-84
2021/04/03 00:12:59;;;;;;;;;10.25;8.25;;;;;16.14;40.03;98102.03;4934208;28;101759;-84
2021/04/03 00:15:26;;;;;;;;;9.75;8.75;;;;;16.15;39.93;98102.88;4940012;28;102070;-84
2021/04/03 00:17:53;;;;;;;;;12.25;9.25;;;;;16.14;39.55;98098.47;4946292;28;103697;-84
2021/04/03 00:20:21;;;;;;;;;10.50;9.00;;;;;16.16;39.99;98099.91;4943853;28;103168;-84
2021/04/03 00:22:48;;;;;;;;;8.00;7.00;;;;;16.14;40.10;98085.66;4953167;28;102486;-84
2021/04/03 00:25:16;;;;;;;;;8.00;7.00;;;;;16.13;40.22;98088.63;4931324;28;102014;-84
2021/04/03 00:27:43;;;;;;;;;5.75;5.75;;;;;16.14;39.90;98082.09;4944691;28;102564;-84
2021/04/03 00:30:17;;;;;;;;;8.50;8.50;;;;;16.12;40.22;98085.06;4944340;28;101793;-85
2021/04/03 00:32:47;;;;;;;;;7.25;7.00;;;;;16.12;40.03;98087.81;4941338;28;103767;-84
2021/04/03 00:35:15;;;;;;;;;10.00;9.00;;;;;16.12;40.08;98082.34;4950594;28;102188;-84
2021/04/03 00:37:42;;;;;;;;;9.25;9.00;;;;;16.13;40.48;98085.91;4941144;28;103683;-84
2021/04/03 00:40:13;;;;;;;;;8.25;7.75;;;;;16.13;40.28;98085.91;4942758;28;105593;-84
2021/04/03 00:42:40;;;;;;;;;9.25;8.00;;;;;16.12;40.19;98081.56;4950105;28;103948;-84
2021/04/03 00:45:07;;;;;;;;;9.00;6.50;;;;;16.12;40.20;98078.81;4941750;28;102219;-84
2021/04/03 00:47:34;;;;;;;;;9.75;8.25;;;;;16.12;39.84;98084.28;4923035;28;105559;-84
2021/04/03 00:50:00;;;;;;;;;7.00;7.00;;;;;16.12;40.09;98085.06;4944908;28;102105;-84
2021/04/03 00:52:27;;;;;;;;;8.25;7.00;;;;;16.11;40.20;98079.91;4941496;28;102863;-84
2021/04/03 00:54:54;;;;;;;;;10.25;9.00;;;;;16.11;40.24;98077.16;4929582;28;102403;-88
2021/04/03 00:57:21;;;;;;;;;9.00;7.50;;;;;16.08;40.34;98073.84;4930638;28;103618;-87
2021/04/03 00:59:48;;;;;;;;;7.25;6.25;;;;;16.08;39.76;98079.31;4932295;28;103402;-88
2021/04/03 01:02:14;;;;;;;;;9.00;8.00;;;;;16.10;39.97;98061.88;4929336;28;102216;-88
2021/04/03 01:04:41;;;;;;;;;9.00;7.50;;;;;16.08;40.14;98070.28;4943807;28;102042;-88
2021/04/03 01:07:08;;;;;;;;;12.25;8.00;;;;;16.08;39.86;98068.38;4924447;28;103606;-88
2021/04/03 01:09:38;;;;;;;;;8.50;7.00;;;;;16.08;40.29;98073.84;4943694;28;102316;-88
2021/04/03 01:12:09;;;;;;;;;11.25;8.75;;;;;16.08;40.19;98068.38;4905731;28;103745;-88
2021/04/03 01:15:21;;;;;;;;;10.75;7.00;;;;;16.07;40.69;98058.56;4942343;28;102124;-88
2021/04/03 01:18:07;;;;;;;;;8.75;7.00;;;;;16.08;40.32;98056.66;4859222;28;107974;-88
2021/04/03 01:20:40;;;;;;;;;10.00;8.25;;;;;16.06;40.30;98067.00;4872034;28;102278;-88
2021/04/03 01:23:40;;;;;;;;;7.50;7.00;;;;;16.06;39.90;98073.28;4943606;28;101999;-88
2021/04/03 01:26:40;;;;;;;;;7.00;7.00;;;;;16.07;40.22;98066.72;4865104;28;102082;-85
2021/04/03 01:29:26;;;;;;;;;11.50;10.50;;;;;16.06;40.34;98067.00;4869846;28;108227;-84
2021/04/03 01:31:52;;;;;;;;;10.50;9.25;;;;;16.05;40.30;98068.06;4938504;28;102474;-84
2021/04/03 01:34:22;;;;;;;;;11.75;9.00;;;;;16.05;40.07;98073.53;4942599;28;101889;-85
2021/04/03 01:36:49;;;;;;;;;10.25;8.50;;;;;16.04;40.11;98069.97;4926510;28;102150;-84
2021/04/03 01:39:23;;;;;;;;;7.00;7.00;;;;;16.03;40.43;98062.84;4927766;28;106063;-84
2021/04/03 01:41:53;;;;;;;;;12.25;8.75;;;;;16.03;40.19;98062.84;4926204;28;103261;-85
2021/04/03 01:44:22;;;;;;;;;8.00;8.00;;;;;16.04;40.15;98052.78;4932405;28;102223;-85
2021/04/03 01:46:49;;;;;;;;;7.00;6.50;;;;;16.03;40.64;98065.59;4926629;28;102359;-84
2021/04/03 01:49:16;;;;;;;;;10.25;8.00;;;;;16.03;40.65;98053.84;4908646;28;103614;-84
2021/04/03 01:51:47;;;;;;;;;10.75;7.00;;;;;16.04;40.25;98050.03;4921965;28;102241;-84
2021/04/03 01:54:13;;;;;;;;;11.00;7.50;;;;;16.02;40.45;98050.31;4945464;28;102121;-84
2021/04/03 01:56:44;;;;;;;;;10.00;9.00;;;;;16.02;40.43;98046.75;4924986;28;102166;-84
2021/04/03 01:59:11;;;;;;;;;7.50;7.00;;;;;16.01;40.14;98048.66;4926320;28;105152;-84
2021/04/03 02:01:38;;;;;;;;;9.50;9.00;;;;;16.00;39.87;98057.91;4926654;28;104043;-84
2021/04/03 02:04:08;;;;;;;;;8.25;8.25;;;;;15.98;40.31;98046.44;4924235;28;102966;-85
2021/04/03 02:06:37;;;;;;;;;8.00;7.50;;;;;16.00;40.45;98047.00;4926302;28;102193;-85
2021/04/03 02:09:04;;;;;;;;;9.00;7.50;;;;;16.00;40.05;98032.53;4943445;28;103461;-84
2021/04/03 02:11:35;;;;;;;;;8.00;6.00;;;;;16.00;39.75;98044.28;4922276;28;102212;-85
2021/04/03 02:14:02;;;;;;;;;9.75;8.25;;;;;16.00;40.32;98044.28;4905131;28;101739;-84
2021/04/03 02:16:31;;;;;;;;;9.00;9.00;;;;;15.99;40.54;98041.78;4903646;28;103362;-84
2021/04/03 02:18:59;;;;;;;;;14.25;9.00;;;;;16.00;40.58;98040.72;4924010;28;105071;-88
2021/04/03 02:21:27;;;;;;;;;8.50;6.50;;;;;15.97;40.30;98039.31;4927170;28;102010;-88
2021/04/03 02:23:54;;;;;;;;;8.00;8.00;;;;;15.98;40.32;98041.00;4926399;28;102273;-88
2021/04/03 02:26:20;;;;;;;;;9.00;9.00;;;;;15.99;40.31;98041.78;4914395;28;104278;-88
2021/04/03 02:28:50;;;;;;;;;10.00;8.00;;;;;15.98;40.52;98053.78;4942771;28;108754;-88
2021/04/03 02:31:16;;;;;;;;;9.00;8.00;;;;;15.98;40.53;98051.91;4939556;28;102314;-88
2021/04/03 02:33:43;;;;;;;;;14.25;10.50;;;;;15.97;40.22;98044.78;4944189;28;102114;-87
2021/04/03 02:36:09;;;;;;;;;9.50;8.00;;;;;15.96;40.04;98048.56;4929095;28;102172;-88
2021/04/03 02:38:36;;;;;;;;;11.50;9.00;;;;;15.96;40.33;98058.66;4921274;28;103391;-88
2021/04/03 02:41:06;;;;;;;;;10.00;8.50;;;;;15.96;40.38;98047.75;4927124;28;102316;-88
2021/04/03 02:43:49;;;;;;;;;9.25;9.00;;;;;15.95;40.25;98041.47;4929614;28;102120;-88
2021/04/03 02:46:54;;;;;;;;;12.00;9.75;;;;;15.94;40.30;98049.91;4905484;28;102141;-88
2021/04/03 02:49:24;;;;;;;;;13.25;10.75;;;;;15.93;40.21;98032.72;4875643;28;107982;-88
2021/04/03 02:51:53;;;;;;;;;11.25;9.75;;;;;15.92;40.39;98025.63;4895835;28;102288;-88
2021/04/03 02:54:21;;;;;;;;;10.00;9.25;;;;;15.93;40.61;98034.63;4922595;28;102234;-85
2021/04/03 02:56:48;;;;;;;;;10.75;10.00;;;;;15.92;40.31;98031.06;4909625;28;102202;-85
2021/04/03 02:59:27;;;;;;;;;10.00;9.75;;;;;15.93;40.09;98027.28;4895925;28;103411;-85
2021/04/03 03:01:54;;;;;;;;;7.00;7.00;;;;;15.93;40.41;98031.91;4920681;28;104034;-85
2021/04/03 03:04:21;;;;;;;;;9.50;8.25;;;;;15.92;40.22;98041.16;4947474;28;101978;-85
2021/04/03 03:06:48;;;;;;;;;9.75;9.25;;;;;15.91;40.49;98032.13;4930975;28;102014;-85
2021/04/03 03:09:15;;;;;;;;;9.75;8.00;;;;;15.91;40.00;98039.47;4940892;28;103613;-85
2021/04/03 03:11:44;;;;;;;;;8.00;8.00;;;;;15.91;40.34;98043.03;4904572;28;103181;-85
2021/04/03 03:14:14;;;;;;;;;10.75;10.00;;;;;15.89;40.49;98042.47;4945851;28;102554;-85
2021/04/03 03:16:42;;;;;;;;;9.50;8.75;;;;;15.89;40.45;98042.47;4940270;28;102096;-85
2021/04/03 03:19:09;;;;;;;;;12.50;10.00;;;;;15.89;40.49;98042.47;4935617;28;103569;-85
2021/04/03 03:21:39;;;;;;;;;14.25;9.50;;;;;15.89;40.30;98037.03;4918917;28;102187;-85
2021/04/03 03:24:06;;;;;;;;;10.00;9.00;;;;;15.87;40.38;98039.16;4940423;28;104076;-85
2021/04/03 03:26:34;;;;;;;;;9.50;8.50;;;;;15.87;40.20;98036.44;4939594;28;102123;-85
2021/04/03 03:29:05;;;;;;;;;10.75;9.50;;;;;15.88;40.52;98046.28;4908546;28;103412;-85
2021/04/03 03:31:32;;;;;;;;;7.00;5.75;;;;;15.88;40.51;98040.00;4918256;28;102784;-85
2021/04/03 03:33:59;;;;;;;;;8.00;8.00;;;;;15.86;40.42;98039.41;4942054;28;102158;-85
2021/04/03 03:36:28;;;;;;;;;9.75;8.00;;;;;15.86;40.67;98037.50;4926990;28;102200;-85
2021/04/03 03:38:55;;;;;;;;;10.25;7.25;;;;;15.86;40.90;98042.13;4934892;28;103415;-85
2021/04/03 03:41:25;;;;;;;;;8.50;7.75;;;;;15.85;40.58;98035.03;4915927;28;101704;-85
2021/04/03 03:43:52;;;;;;;;;10.50;9.25;;;;;15.86;40.86;98036.69;4900395;28;101992;-85
2021/04/03 03:46:19;;;;;;;;;10.25;9.25;;;;;15.85;40.49;98037.78;4936223;28;102014;-85
2021/04/03 03:48:45;;;;;;;;;11.50;8.25;;;;;15.84;40.69;98045.13;4937591;28;103906;-85
2021/04/03 03:51:12;;;;;;;;;15.00;9.00;;;;;15.83;40.68;98048.91;4938885;28;104104;-85
2021/04/03 03:53:39;;;;;;;;;10.25;7.75;;;;;15.82;40.50;98044.53;4932925;28;109412;-85
2021/04/03 03:56:06;;;;;;;;;8.50;8.50;;;;;15.80;40.56;98038.50;4932439;28;103107;-88
2021/04/03 03:58:32;;;;;;;;;14.75;12.25;;;;;15.79;40.58;98039.59;4925270;28;103435;-88
2021/04/03 04:00:59;;;;;;;;;12.75;10.25;;;;;15.79;40.64;98036.84;4925296;28;101893;-88
2021/04/03 04:03:30;;;;;;;;;14.00;11.25;;;;;15.79;40.73;98039.59;4946360;28;102177;-88
2021/04/03 04:05:57;;;;;;;;;10.50;8.00;;;;;15.77;40.59;98030.81;4929526;28;103485;-88
2021/04/03 04:08:24;;;;;;;;;10.25;8.75;;;;;15.76;40.59;98034.59;4940978;28;103416;-85
2021/04/03 04:10:50;;;;;;;;;10.50;10.00;;;;;15.77;40.40;98033.53;4947914;28;102594;-88
2021/04/03 04:13:17;;;;;;;;;11.25;10.75;;;;;15.76;40.49;98042.78;4942440;28;101875;-88
2021/04/03 04:15:43;;;;;;;;;10.25;9.25;;;;;15.77;40.56;98035.44;4922390;28;109813;-88
2021/04/03 04:18:10;;;;;;;;;10.50;8.25;;;;;15.76;40.42;98031.88;4938310;28;103616;-88
2021/04/03 04:20:37;;;;;;;;;8.75;8.75;;;;;15.76;40.52;98031.88;4937628;28;102073;-88
2021/04/03 04:23:04;;;;;;;;;13.00;10.00;;;;;15.76;40.69;98034.59;4931857;28;101882;-88
2021/04/03 04:25:30;;;;;;;;;9.00;7.75;;;;;15.75;40.48;98041.16;4944100;28;102098;-88
2021/04/03 04:27:57;;;;;;;;;10.25;9.25;;;;;15.75;40.35;98032.97;4944742;28;103618;-88
2021/04/03 04:30:24;;;;;;;;;6.75;6.25;;;;;15.74;40.50;98034.03;4940194;28;103638;-84
2021/04/03 04:32:50;;;;;;;;;12.75;10.00;;;;;15.75;40.66;98037.59;4941841;28;102479;-88
2021/04/03 04:35:17;;;;;;;;;11.00;7.75;;;;;15.74;40.38;98035.94;4943942;28;102331;-88
2021/04/03 04:37:44;;;;;;;;;11.25;8.50;;;;;15.72;40.48;98032.63;4939929;28;103399;-88
2021/04/03 04:40:12;;;;;;;;;10.00;8.75;;;;;15.72;40.78;98029.91;4948006;28;102266;-88
2021/04/03 04:42:42;;;;;;;;;17.00;9.00;;;;;15.72;40.27;98036.19;4945644;28;110562;-88
2021/04/03 04:45:09;;;;;;;;;10.00;8.25;;;;;15.72;40.68;98036.19;4944251;28;102492;-88
2021/04/03 04:47:36;;;;;;;;;10.50;9.00;;;;;15.73;40.66;98037.84;4945472;28;103858;-88
2021/04/03 04:50:05;;;;;;;;;8.00;7.00;;;;;15.73;40.72;98034.28;4945258;28;104100;-88
2021/04/03 04:52:32;;;;;;;;;9.50;8.75;;;;;15.72;40.63;98046.25;4945442;28;104426;-88
2021/04/03 04:54:58;;;;;;;;;10.50;7.25;;;;;15.70;40.56;98027.44;4933132;28;102161;-88
2021/04/03 04:57:25;;;;;;;;;12.75;9.75;;;;;15.71;40.48;98039.19;4944106;28;104052;-87
2021/04/03 04:59:53;;;;;;;;;10.25;9.25;;;;;15.71;40.69;98045.47;4941270;28;102086;-89
2021/04/03 05:02:20;;;;;;;;;11.00;9.50;;;;;15.71;40.89;98050.91;4941063;28;103533;-88
2021/04/03 05:04:46;;;;;;;;;8.25;7.25;;;;;15.70;40.42;98054.69;4944378;28;102570;-88
2021/04/03 05:07:13;;;;;;;;;7.00;6.25;;;;;15.70;40.75;98062.03;4941913;28;107199;-88
2021/04/03 05:09:40;;;;;;;;;10.50;9.00;;;;;15.69;40.54;98069.38;4921410;28;102844;-88
2021/04/03 05:12:07;;;;;;;;;10.00;8.50;;;;;15.70;40.69;98062.03;4947974;28;102124;-87
2021/04/03 05:14:34;;;;;;;;;8.25;7.00;;;;;15.69;40.46;98063.09;4945517;28;102129;-88
2021/04/03 05:17:00;;;;;;;;;9.00;7.75;;;;;15.70;40.81;98065.59;4941003;28;103613;-88
2021/04/03 05:19:27;;;;;;;;;10.50;7.00;;;;;15.69;40.67;98071.28;4926737;28;102398;-88
2021/04/03 05:21:53;;;;;;;;;5.75;5.50;;;;;15.70;40.42;98078.41;4934273;28;104243;-87
2021/04/03 05:24:20;;;;;;;;;6.50;6.25;;;;;15.69;41.02;98074.84;4946864;28;102335;-87
2021/04/03 05:26:47;;;;;;;;;10.25;8.00;;;;;15.70;40.90;98081.13;4940686;28;103616;-87
2021/04/03 05:29:14;;;;;;;;;10.75;8.50;;;;;15.68;40.89;98084.09;4941742;28;102116;-88
2021/04/03 05:31:40;;;;;;;;;7.25;7.25;;;;;15.67;40.73;98085.16;4943767;28;102325;-87
2021/04/03 05:34:07;;;;;;;;;6.00;6.00;;;;;15.67;40.49;98097.97;4941223;28;102455;-87
2021/04/03 05:36:34;;;;;;;;;6.25;5.50;;;;;15.64;40.93;98096.56;4930731;28;103385;-87
2021/04/03 05:39:00;;;;;;;;;6.00;5.75;;;;;15.62;40.84;98091.34;4911712;28;101863;-87
2021/04/03 05:41:27;;;;;;;;;7.00;6.00;;;;;15.61;40.27;98097.06;4941998;28;102278;-88
2021/04/03 05:43:53;;;;;;;;;10.50;8.00;;;;;15.61;40.65;98095.16;4943981;28;102334;-87
2021/04/03 05:46:20;;;;;;;;;7.00;7.00;;;;;15.61;40.61;98105.22;4903391;28;110242;-88
2021/04/03 05:48:47;;;;;;;;;8.50;7.00;;;;;15.59;40.79;98108.19;4928741;28;102410;-87
2021/04/03 05:51:14;;;;;;;;;8.75;7.50;;;;;15.60;40.47;98114.47;4940161;28;102027;-87
2021/04/03 05:53:41;;;;;;;;;9.00;5.75;;;;;15.60;40.26;98114.47;4943362;28;102041;-87
2021/04/03 05:56:08;;;;;;;;;6.75;6.00;;;;;15.57;40.62;98115.81;4903401;28;106949;-87
2021/04/03 05:58:36;;;;;;;;;5.50;5.50;;;;;15.58;40.47;98127.50;4912097;28;104769;-87
2021/04/03 06:01:06;;;;;;;;;8.75;6.50;;;;;15.56;40.17;98126.94;4940126;28;103419;-87
2021/04/03 06:03:34;;;;;;;;;7.50;5.00;;;;;15.56;40.58;98121.50;4945831;28;102267;-87
2021/04/03 06:06:00;;;;;;;;;7.00;6.75;;;;;15.57;40.71;98137.59;4929105;28;103817;-87
2021/04/03 06:08:32;;;;;;;;;6.00;5.50;;;;;15.55;40.54;98128.00;4935773;28;102189;-87
2021/04/03 06:11:17;;;;;;;;;7.00;6.25;;;;;15.56;40.71;98133.22;4943257;28;102127;-87
2021/04/03 06:13:56;;;;;;;;;7.25;6.25;;;;;15.55;40.35;98139.72;4942026;28;101928;-87
2021/04/03 06:16:29;;;;;;;;;8.25;7.00;;;;;15.56;39.88;98135.94;4927452;28;107911;-86
2021/04/03 06:19:15;;;;;;;;;8.00;6.25;;;;;15.55;40.08;98133.44;4932653;28;102628;-87
2021/04/03 06:21:46;;;;;;;;;6.75;6.75;;;;;15.55;40.19;98138.91;4943645;28;102094;-87
2021/04/03 06:24:28;;;;;;;;;6.50;4.50;;;;;15.54;40.31;98145.41;4946449;28;102246;-87
2021/04/03 06:27:09;;;;;;;;;7.00;4.00;;;;;15.54;40.33;98146.25;4940298;28;108065;-86
2021/04/03 06:29:35;;;;;;;;;7.25;5.75;;;;;15.53;40.47;98143.78;4943307;28;102020;-87
2021/04/03 06:32:03;;;;;;;;;4.50;4.50;;;;;15.49;40.34;98137.13;4948487;28;102134;-87
2021/04/03 06:34:40;;;;;;;;;5.75;5.25;;;;;15.52;40.24;98144.84;4931900;28;103162;-87
2021/04/03 06:37:08;;;;;;;;;6.00;5.25;;;;;15.52;40.49;98155.75;4937369;28;103395;-87
2021/04/03 06:39:52;;;;;;;;;8.00;6.25;;;;;15.51;40.48;98159.53;4939909;28;104888;-87
2021/04/03 06:42:43;;;;;;;;;5.00;4.50;;;;;15.51;40.22;98165.00;4937236;28;102048;-87
2021/04/03 06:45:23;;;;;;;;;5.75;5.00;;;;;15.51;40.37;98165.00;4860834;28;103846;-87
2021/04/03 06:47:51;;;;;;;;;6.00;6.00;;;;;15.51;40.41;98165.00;4948932;28;108206;-87
2021/04/03 06:50:19;;;;;;;;;3.00;3.00;;;;;15.50;40.43;98157.84;4942404;28;105120;-87
2021/04/03 06:52:45;;;;;;;;;5.00;4.00;;;;;15.47;40.38;98161.06;4919971;28;103916;-87
2021/04/03 06:55:15;;;;;;;;;6.75;5.00;;;;;15.50;40.15;98160.56;4921831;28;102289;-87
2021/04/03 06:57:43;;;;;;;;;5.50;4.75;;;;;15.49;40.29;98167.13;4929176;28;103466;-87
2021/04/03 07:00:10;;;;;;;;;4.00;4.00;;;;;15.50;40.22;98166.03;4944325;28;102119;-87
2021/04/03 07:02:56;;;;;;;;;6.00;5.25;;;;;15.50;40.29;98168.75;4940932;28;104030;-87
2021/04/03 07:05:23;;;;;;;;;4.00;4.00;;;;;15.51;40.23;98173.16;4926640;28;102126;-87
2021/04/03 07:07:50;;;;;;;;;5.00;4.50;;;;;15.48;39.94;98166.28;4939392;28;111244;-87
2021/04/03 07:10:17;;;;;;;;;3.50;3.50;;;;;15.50;39.86;98176.91;4932250;28;102311;-87
2021/04/03 07:12:44;;;;;;;;;5.25;4.25;;;;;15.49;40.13;98176.09;4936481;28;104048;-87
2021/04/03 07:15:12;;;;;;;;;4.00;4.00;;;;;15.50;40.22;98174.19;4937680;28;102596;-87
2021/04/03 07:17:42;;;;;;;;;4.25;4.25;;;;;15.49;40.77;98172.56;4942149;28;103628;-87
2021/04/03 07:20:11;;;;;;;;;3.75;3.00;;;;;15.50;40.03;98176.91;4928866;28;102282;-87
2021/04/03 07:22:45;;;;;;;;;4.25;3.00;;;;;15.50;39.92;98182.38;4937327;28;104532;-87
2021/04/03 07:25:13;;;;;;;;;3.00;3.00;;;;;15.49;39.87;98183.47;4939003;28;103677;-87
2021/04/03 07:27:41;;;;;;;;;3.25;3.25;;;;;15.51;39.99;98186.78;4929586;28;107614;-87
2021/04/03 07:30:08;;;;;;;;;2.00;2.00;;;;;15.51;40.22;98184.06;4914019;28;103690;-87
2021/04/03 07:32:39;;;;;;;;;3.25;3.25;;;;;15.50;40.29;98187.81;4945918;28;102107;-87
2021/04/03 07:35:24;;;;;;;;;4.00;3.00;;;;;15.51;40.29;98192.25;4941325;28;102936;-87
2021/04/03 07:37:52;;;;;;;;;2.50;2.50;;;;;15.52;40.37;98196.63;4942540;28;111142;-87
2021/04/03 07:40:24;;;;;;;;;4.00;3.00;;;;;15.51;40.21;98193.06;4945919;28;102122;-87
2021/04/03 07:42:51;;;;;;;;;3.00;3.00;;;;;15.51;39.99;98201.25;4940907;28;101775;-87
2021/04/03 07:45:30;;;;;;;;;5.00;4.00;;;;;15.52;40.38;98202.06;4919968;28;102246;-87
2021/04/03 07:47:57;;;;;;;;;3.00;3.00;;;;;15.52;40.25;98199.34;4934140;28;107955;-85
2021/04/03 07:50:42;;;;;;;;;2.00;2.00;;;;;15.52;40.37;98199.34;4937279;28;102122;-87
2021/04/03 07:58:49;;;;;;;;;2.25;2.25;;;;;15.51;40.45;98209.41;5085975;23;103652;-85
2021/04/03 08:01:25;;;;;;;;;5.00;2.50;;;;;15.53;40.13;98225.53;4885999;28;102178;-85
2021/04/03 08:04:01;;;;;;;;;2.50;2.25;;;;;15.52;40.55;98218.41;4881288;28;101838;-86
2021/04/03 08:06:33;;;;;;;;;2.00;2.00;;;;;15.52;40.14;98221.16;4873349;28;102235;-86
2021/04/03 08:09:03;;;;;;;;;3.00;3.00;;;;;15.52;40.57;98226.59;4885054;28;103429;-86
2021/04/03 08:11:29;;;;;;;;;1.75;1.75;;;;;15.50;40.68;98217.78;4883586;28;102355;-86
2021/04/03 08:13:58;;;;;;;;;4.00;3.00;;;;;15.51;40.47;98230.38;4886020;28;102230;-87
2021/04/03 08:16:29;;;;;;;;;3.00;2.75;;;;;15.49;40.12;98225.13;4879434;28;102760;-87
2021/04/03 08:18:57;;;;;;;;;2.75;2.00;;;;;15.52;40.33;98232.06;4882479;28;108301;-87
2021/04/03 08:21:25;;;;;;;;;5.00;4.00;;;;;15.51;40.22;98228.50;4883967;28;102461;-86
2021/04/03 08:23:53;;;;;;;;;0.50;0.50;;;;;15.52;40.19;98238.34;4868079;28;102100;-83
2021/04/03 08:26:21;;;;;;;;;2.00;2.00;;;;;15.57;42.81;98240.34;4880885;28;103056;-88
2021/04/03 08:28:48;;;;;;;;;2.75;2.75;;;;;15.64;45.66;98235.56;4884267;28;103546;-87
2021/04/03 08:31:16;;;;;;;;;3.75;3.00;;;;;15.75;48.35;98234.69;4882649;28;101826;-92
2021/04/03 08:33:44;;;;;;;;;3.00;2.00;;;;;15.82;48.44;98238.09;4883946;28;102095;-89
2021/04/03 08:36:21;;;;;;;;;1.75;1.00;;;;;15.89;48.21;98251.59;4886944;28;103304;-82
2021/04/03 08:38:48;;;;;;;;;2.75;2.00;;;;;15.94;48.64;98252.50;4882656;28;103429;-81
2021/04/03 08:41:19;;;;;;;;;2.25;1.50;;;;;15.98;47.70;98255.59;4887726;28;102125;-83
2021/04/03 08:43:48;;;;;;;;;3.25;2.50;;;;;16.02;48.30;98254.84;4884881;28;104861;-82
2021/04/03 08:46:15;;;;;;;;;3.00;3.00;;;;;16.08;47.85;98247.56;4884584;28;103486;-84
2021/04/03 08:48:44;;;;;;;;;2.00;2.00;;;;;16.24;48.14;98259.59;4880445;28;103442;-83
2021/04/03 08:51:11;;;;;;;;;2.00;2.00;;;;;16.40;49.04;98266.97;4858716;28;101931;-79
2021/04/03 08:53:46;;;;;;;;;4.00;2.50;;;;;16.52;48.04;98265.81;4887444;28;102138;-84
2021/04/03 08:56:35;;;;;;;;;1.75;1.75;;;;;16.64;48.86;98267.69;4887314;28;103008;-82
2021/04/03 08:59:05;;;;;;;;;2.75;2.00;;;;;16.71;48.17;98274.63;4866597;28;108184;-82
2021/04/03 09:01:34;;;;;;;;;3.00;2.75;;;;;16.76;48.76;98271.97;4862258;28;102035;-84
2021/04/03 09:04:06;;;;;;;;;2.00;2.00;;;;;16.86;48.02;98268.59;4848115;28;102069;-83
2021/04/03 09:06:52;;;;;;;;;3.50;2.00;;;;;16.93;47.64;98261.88;4849560;28;101995;-81
2021/04/03 09:09:20;;;;;;;;;1.25;1.25;;;;;17.02;48.23;98258.75;4864811;28;103436;-85
2021/04/03 09:11:53;;;;;;;;;2.00;2.00;;;;;17.11;47.58;98262.69;4860339;28;101860;-81
2021/04/03 09:14:31;;;;;;;;;3.75;2.25;;;;;17.18;47.79;98263.34;4864317;28;102251;-81
2021/04/03 09:16:59;;;;;;;;;2.00;2.00;;;;;17.18;46.91;98260.59;4862019;28;102144;-81
2021/04/03 09:19:25;;;;;;;;;0.75;0.75;;;;;17.21;46.57;98247.25;4864561;28;103393;-80
2021/04/03 09:21:52;;;;;;;;;3.00;2.00;;;;;17.24;45.67;98265.06;4863475;28;102911;-82
2021/04/03 09:24:46;;;;;;;;;3.00;1.75;;;;;17.20;45.18;98269.38;4866278;28;101837;-83
2021/04/03 09:27:17;;;;;;;;;2.25;2.25;;;;;17.14;46.00;98254.00;4784569;28;103466;-86
2021/04/03 09:30:05;;;;;;;;;3.00;2.50;;;;;17.11;45.15;98260.75;4862919;28;103417;-85
2021/04/03 09:32:39;;;;;;;;;2.75;2.25;;;;;17.06;45.53;98252.53;4860882;28;102687;-84
2021/04/03 09:35:09;;;;;;;;;4.00;3.00;;;;;17.06;45.07;98259.88;4865660;28;101854;-82
2021/04/03 09:37:37;;;;;;;;;2.75;2.00;;;;;17.03;45.99;98263.09;4869616;28;102322;-81
2021/04/03 09:40:07;;;;;;;;;3.00;3.00;;;;;17.01;45.27;98257.06;4863522;28;103395;-84
2021/04/03 09:42:36;;;;;;;;;2.00;2.00;;;;;17.00;46.00;98263.63;4867090;28;101880;-86
2021/04/03 09:45:10;;;;;;;;;2.00;2.00;;;;;16.99;45.61;98264.69;4854242;28;103311;-85
2021/04/03 09:47:42;;;;;;;;;2.00;2.00;;;;;16.98;45.67;98260.28;4868418;28;102302;-85
2021/04/03 09:50:10;;;;;;;;;3.00;2.75;;;;;16.95;45.52;98258.91;4869507;28;102454;-85
2021/04/03 09:52:41;;;;;;;;;3.00;2.00;;;;;16.97;45.57;98266.84;4861060;28;102425;-84
2021/04/03 09:55:13;;;;;;;;;3.50;3.00;;;;;16.98;45.03;98268.47;4835737;28;101953;-80
2021/04/03 09:57:40;;;;;;;;;3.25;2.25;;;;;16.95;45.36;98281.56;4863880;28;102776;-85
2021/04/03 10:00:09;;;;;;;;;3.00;2.00;;;;;16.88;44.51;98278.22;4863228;28;104830;-82
2021/04/03 10:02:36;;;;;;;;;2.75;2.50;;;;;16.78;43.84;98278.03;4859170;28;102640;-84
2021/04/03 10:05:04;;;;;;;;;2.00;2.00;;;;;16.73;43.71;98277.94;4865460;28;101858;-82
2021/04/03 10:07:31;;;;;;;;;3.00;2.00;;;;;16.68;43.36;98279.75;4871856;28;103301;-85
2021/04/03 10:09:57;;;;;;;;;3.00;3.00;;;;;16.61;43.44;98288.13;4868668;28;108731;-83
2021/04/03 10:12:24;;;;;;;;;3.25;2.00;;;;;16.55;42.68;98286.34;4867927;28;102622;-83
2021/04/03 10:14:51;;;;;;;;;3.00;3.00;;;;;16.52;42.94;98292.31;4866785;28;102159;-87
2021/04/03 10:17:17;;;;;;;;;4.50;4.25;;;;;16.50;42.67;98300.75;4864793;28;101937;-87
2021/04/03 10:19:44;;;;;;;;;7.00;3.75;;;;;16.48;43.36;98296.59;4863663;28;103412;-87
2021/04/03 10:22:11;;;;;;;;;5.00;4.00;;;;;16.40;42.92;98299.72;4864549;28;102080;-87
2021/04/03 10:24:38;;;;;;;;;3.00;3.00;;;;;16.35;43.33;98296.88;4866902;28;102003;-89
2021/04/03 10:27:06;;;;;;;;;2.75;2.75;;;;;16.28;42.80;98301.69;4864185;28;102096;-88
2021/04/03 10:29:33;;;;;;;;;3.50;3.50;;;;;16.22;43.05;98300.75;4865129;28;103785;-84
2021/04/03 10:31:59;;;;;;;;;8.00;7.00;;;;;15.46;42.15;98317.44;4866450;28;101766;-94
2021/04/03 10:34:26;;;;;;;;;10.50;9.50;;;;;14.37;43.41;98315.34;4865392;28;102237;-88
2021/04/03 10:36:53;;;;;;;;;7.75;6.00;;;;;14.70;43.43;98315.66;4867187;28;105283;-91
2021/04/03 10:39:19;;;;;;;;;7.75;7.75;;;;;14.55;42.66;98323.44;4860117;28;103626;-88
2021/04/03 10:41:46;;;;;;;;;8.75;8.75;;;;;13.78;44.45;98322.38;4865264;28;102060;-88
2021/04/03 10:44:13;;;;;;;;;9.25;8.50;;;;;13.37;45.27;98337.50;4860326;28;101819;-89
2021/04/03 10:46:39;;;;;;;;;7.75;7.25;;;;;13.10;45.82;98336.09;4864656;28;102074;-89
2021/04/03 10:49:06;;;;;;;;;9.25;7.00;;;;;13.06;47.85;98345.72;4838065;28;103423;-89
2021/04/03 10:51:33;;;;;;;;;5.00;5.00;;;;;13.62;46.29;98344.75;4854494;28;101898;-89
2021/04/03 10:54:02;;;;;;;;;3.75;3.75;;;;;14.04;45.25;98349.25;4862999;28;102046;-88
2021/04/03 10:56:32;;;;;;;;;3.50;3.50;;;;;14.26;44.96;98347.69;4848232;28;102137;-85
2021/04/03 10:58:59;;;;;;;;;4.50;3.50;;;;;14.48;44.49;98349.91;4849047;28;108014;-89
2021/04/03 11:06:48;;;;;;;;;14.50;14.50;;;;;14.93;44.44;98359.25;5053934;23;104154;-88
2021/04/03 11:09:15;;;;;;;;;36.75;35.25;;;;;15.06;44.84;98367.19;4867398;28;103795;-88
2021/04/03 11:11:41;;;;;;;;;53.00;44.25;;;;;15.15;45.14;98365.78;4863581;28;102477;-87
2021/04/03 11:14:09;;;;;;;;;61.00;49.00;;;;;15.18;44.50;98369.91;4865116;28;104075;-88
2021/04/03 11:16:36;;;;;;;;;55.75;47.25;;;;;15.21;44.47;98377.63;4871238;28;103223;-85
2021/04/03 11:19:03;;;;;;;;;52.50;43.75;;;;;15.22;44.55;98378.47;4864744;28;105132;-86
2021/04/03 11:21:30;;;;;;;;;49.00;41.00;;;;;15.26;44.28;98374.19;4863216;28;103068;-86
2021/04/03 11:23:59;;;;;;;;;47.75;39.50;;;;;15.29;43.75;98373.72;4868387;28;102289;-86
2021/04/03 11:26:26;;;;;;;;;44.00;36.25;;;;;15.33;43.79;98381.19;4865790;28;102230;-86
2021/04/03 11:28:56;;;;;;;;;35.00;34.00;;;;;15.36;43.69;98363.53;4871969;28;102609;-87
2021/04/03 11:31:24;;;;;;;;;31.25;30.50;;;;;15.40;43.74;98362.81;4864926;28;101765;-86
2021/04/03 11:33:53;;;;;;;;;30.00;29.25;;;;;15.43;43.56;98366.97;4861913;28;102156;-86
2021/04/03 11:36:20;;;;;;;;;31.25;30.00;;;;;15.46;43.45;98358.31;4873391;28;102068;-86
2021/04/03 11:38:49;;;;;;;;;30.25;27.50;;;;;15.52;43.54;98357.41;4868453;28;103889;-86
2021/04/03 11:41:16;;;;;;;;;19.25;17.25;;;;;15.57;43.41;98360.25;4870548;28;102096;-86
2021/04/03 11:43:44;;;;;;;;;26.75;26.25;;;;;15.60;43.44;98359.75;4872005;28;102190;-86